Time;durP1;ratioP1;P1;durP2;ratioP2;P2;SDS_P1;SDS_P2;PMS_P1;PMS_P2;Temp;Humidity;BMP_temperature;BMP_pressure;BME280_temperature;BME280_humidity;BME280_pressure;Samples;Min_cycle;Max_cycle;Signal;HPM_P1;HPM_P2
2021/08/08 00:00:06;;;;;;;2.98;1.70;;;;;;;17.78;64.97;100004.97;1736113;82;20950;-78
2021/08/08 00:02:37;;;;;;;1.92;1.70;;;;;;;17.78;65.06;100017.49;1738061;82;21401;-78
2021/08/08 00:05:07;;;;;;;1.82;1.60;;;;;;;17.77;65.16;100027.85;1715836;82;21850;-79
2021/08/08 00:07:33;;;;;;;2.65;1.80;;;;;;;17.73;65.25;100026.84;1739532;82;20947;-78
2021/08/08 00:10:00;;;;;;;3.60;1.67;;;;;;;17.71;65.36;100028.88;1737745;81;21007;-78
2021/08/08 00:12:28;;;;;;;2.58;1.90;;;;;;;17.68;65.49;100026.53;1742917;81;21060;-77
2021/08/08 00:14:54;;;;;;;4.00;2.08;;;;;;;17.64;65.57;100023.87;1704830;84;20961;-78
2021/08/08 00:17:21;;;;;;;2.17;1.70;;;;;;;17.62;65.69;100014.38;1695093;84;21851;-77
2021/08/08 00:19:48;;;;;;;2.35;1.90;;;;;;;17.59;65.86;100010.22;1704859;83;21073;-77
2021/08/08 00:22:15;;;;;;;4.45;1.90;;;;;;;17.57;66.03;100004.73;1696635;84;21012;-78
2021/08/08 00:24:41;;;;;;;4.45;1.62;;;;;;;17.55;66.24;100000.88;1713710;83;20983;-78
2021/08/08 00:27:08;;;;;;;2.77;1.80;;;;;;;17.52;66.31;99990.56;1688527;85;21075;-77
2021/08/08 00:29:35;;;;;;;4.22;1.87;;;;;;;17.54;66.34;99983.70;1688810;85;21802;-77
2021/08/08 00:32:01;;;;;;;4.75;1.80;;;;;;;17.54;66.46;99982.38;1682086;85;20958;-77
2021/08/08 00:34:28;;;;;;;2.72;1.50;;;;;;;17.52;66.53;99977.72;1680139;85;21022;-77
2021/08/08 00:36:55;;;;;;;2.55;1.70;;;;;;;17.51;66.51;99972.88;1687324;83;20953;-77
2021/08/08 00:39:22;;;;;;;2.17;1.52;;;;;;;17.51;66.52;99972.05;1681496;85;20960;-77
2021/08/08 00:41:49;;;;;;;3.62;1.52;;;;;;;17.51;66.48;99976.89;1690808;83;21870;-78
2021/08/08 00:44:17;;;;;;;2.80;1.70;;;;;;;17.51;66.47;99988.08;1695232;83;21024;-77
2021/08/08 00:46:43;;;;;;;2.70;1.60;;;;;;;17.49;66.50;99997.60;1695222;83;21000;-77
2021/08/08 00:49:12;;;;;;;4.42;1.80;;;;;;;17.49;66.48;99993.59;1695183;83;21188;-77
2021/08/08 00:51:39;;;;;;;2.02;1.70;;;;;;;17.47;66.45;99986.27;1695222;84;21001;-74
2021/08/08 00:54:07;;;;;;;2.02;1.70;;;;;;;17.46;66.41;99984.08;1695305;83;21817;-74
2021/08/08 00:56:37;;;;;;;2.00;1.57;;;;;;;17.46;66.40;99984.58;1694738;84;21487;-72
2021/08/08 00:59:05;;;;;;;2.15;1.75;;;;;;;17.44;66.49;99983.93;1665092;85;20960;-72
2021/08/08 01:01:40;;;;;;;2.12;1.67;;;;;;;17.42;66.55;99987.28;1670280;86;21072;-73
2021/08/08 01:04:10;;;;;;;2.25;1.50;;;;;;;17.48;66.48;99987.93;1670645;85;21046;-73
2021/08/08 01:06:54;;;;;;;2.10;1.67;;;;;;;17.48;66.51;99996.45;1641640;87;21825;-73
2021/08/08 01:09:24;;;;;;;2.22;1.70;;;;;;;17.47;66.54;99995.62;1667189;85;21386;-72
2021/08/08 01:11:50;;;;;;;3.50;1.77;;;;;;;17.45;66.58;100001.11;1667232;86;21423;-75
2021/08/08 01:14:18;;;;;;;2.62;1.70;;;;;;;17.45;66.67;99993.09;1668879;84;21048;-76
2021/08/08 01:16:48;;;;;;;2.02;1.57;;;;;;;17.46;66.63;99994.75;1695031;84;21507;-76
2021/08/08 01:19:18;;;;;;;1.87;1.60;;;;;;;17.48;66.64;100002.62;1695330;84;22436;-76
2021/08/08 01:21:46;;;;;;;2.35;1.80;;;;;;;17.50;66.70;100010.45;1695153;83;20984;-76
2021/08/08 01:24:14;;;;;;;2.17;1.60;;;;;;;17.49;66.83;100007.45;1695401;83;21005;-77
2021/08/08 01:26:42;;;;;;;3.33;1.75;;;;;;;17.48;67.00;100007.13;1695143;84;21525;-76
2021/08/08 01:29:09;;;;;;;4.95;2.17;;;;;;;17.44;67.08;100004.78;1695472;83;20992;-75
2021/08/08 01:31:37;;;;;;;3.77;1.90;;;;;;;17.47;67.10;100008.97;1694978;83;21818;-75
2021/08/08 01:34:04;;;;;;;2.27;1.67;;;;;;;17.49;67.14;100008.28;1695410;83;20956;-75
2021/08/08 01:36:30;;;;;;;2.00;1.65;;;;;;;17.48;67.24;100008.46;1695104;84;21015;-76
2021/08/08 01:39:05;;;;;;;2.20;1.80;;;;;;;17.45;67.36;100008.28;1694822;83;21160;-77
2021/08/08 01:41:37;;;;;;;2.77;1.70;;;;;;;17.44;67.45;100013.30;1668769;84;20992;-78
2021/08/08 01:44:05;;;;;;;4.45;1.90;;;;;;;17.44;67.49;100022.64;1694989;84;21774;-77
2021/08/08 01:46:33;;;;;;;3.77;1.90;;;;;;;17.44;67.55;100017.30;1694909;84;20953;-77
2021/08/08 01:49:07;;;;;;;2.65;1.70;;;;;;;17.41;67.63;100003.81;1691604;83;21460;-77
2021/08/08 01:51:34;;;;;;;1.92;1.70;;;;;;;17.40;67.75;100001.32;1686481;84;21496;-77
2021/08/08 01:54:01;;;;;;;2.12;1.75;;;;;;;17.38;67.80;100000.67;1695290;84;20937;-77
2021/08/08 01:56:28;;;;;;;2.95;1.80;;;;;;;17.37;67.95;100007.84;1695163;84;21456;-77
2021/08/08 01:58:55;;;;;;;2.60;1.85;;;;;;;17.37;67.98;100019.00;1688469;84;21405;-78
2021/08/08 02:01:29;;;;;;;4.85;1.75;;;;;;;17.36;68.00;100007.48;1667037;86;20984;-77
2021/08/08 02:03:57;;;;;;;2.15;1.65;;;;;;;17.36;68.04;100000.81;1667139;86;21514;-77
2021/08/08 02:06:24;;;;;;;2.58;1.77;;;;;;;17.38;68.09;100006.02;1681820;83;21486;-77
2021/08/08 02:08:53;;;;;;;1.87;1.57;;;;;;;17.37;68.14;100019.00;1695198;84;21865;-73
2021/08/08 02:11:19;;;;;;;3.25;1.72;;;;;;;17.37;68.22;100022.53;1695142;84;21036;-74
2021/08/08 02:13:51;;;;;;;3.47;1.92;;;;;;;17.33;68.27;100015.86;1695215;84;21452;-75
2021/08/08 02:16:18;;;;;;;3.80;1.95;;;;;;;17.34;68.29;100022.03;1695252;83;21440;-74
2021/08/08 02:18:46;;;;;;;2.75;1.90;;;;;;;17.33;68.21;100016.36;1695359;84;21051;-75
2021/08/08 02:21:14;;;;;;;2.37;1.80;;;;;;;17.32;68.12;100020.88;1695168;84;22838;-74
2021/08/08 02:23:41;;;;;;;1.87;1.70;;;;;;;17.30;68.11;100012.21;1695231;83;20956;-74
2021/08/08 02:26:08;;;;;;;2.87;1.87;;;;;;;17.28;68.07;100021.41;1695290;84;20995;-75
2021/08/08 02:28:37;;;;;;;3.42;1.85;;;;;;;17.26;68.06;100014.88;1695267;84;21538;-76
2021/08/08 02:31:04;;;;;;;2.33;1.52;;;;;;;17.22;68.07;100015.41;1695409;83;21079;-77
2021/08/08 02:33:30;;;;;;;3.62;1.87;;;;;;;17.19;68.11;100017.94;1695610;84;22178;-77
2021/08/08 02:35:57;;;;;;;3.20;1.90;;;;;;;17.20;68.07;100019.59;1669409;84;21525;-76
2021/08/08 02:38:26;;;;;;;2.87;1.67;;;;;;;17.17;68.15;100022.09;1693592;83;20963;-76
2021/08/08 02:40:55;;;;;;;2.10;1.72;;;;;;;17.14;68.18;100023.78;1689203;84;20961;-76
2021/08/08 02:43:22;;;;;;;5.03;1.90;;;;;;;17.11;68.24;100024.13;1688009;85;20996;-77
2021/08/08 02:45:50;;;;;;;2.85;1.80;;;;;;;17.12;68.24;100028.97;1657932;85;21915;-77
2021/08/08 02:48:17;;;;;;;2.75;1.87;;;;;;;17.12;68.28;100029.80;1676195;85;21101;-76
2021/08/08 02:50:44;;;;;;;3.42;2.00;;;;;;;17.11;68.28;100025.97;1673422;85;20981;-77
2021/08/08 02:53:10;;;;;;;2.20;1.75;;;;;;;17.09;68.31;100023.48;1673319;85;21512;-78
2021/08/08 02:55:39;;;;;;;2.87;1.87;;;;;;;17.07;68.36;100032.13;1673374;85;21026;-77
2021/08/08 02:58:05;;;;;;;2.65;2.00;;;;;;;17.04;68.50;100027.16;1685096;85;22473;-77
2021/08/08 03:00:34;;;;;;;2.52;1.75;;;;;;;17.03;68.55;100027.33;1680183;85;20967;-79
2021/08/08 03:03:00;;;;;;;2.92;1.90;;;;;;;17.00;68.67;100023.17;1661849;86;20997;-79
2021/08/08 03:05:28;;;;;;;3.05;1.80;;;;;;;16.99;68.76;100024.18;1631226;88;21525;-77
2021/08/08 03:07:54;;;;;;;5.12;1.90;;;;;;;16.99;68.90;100028.19;1661825;86;21448;-76
2021/08/08 03:10:22;;;;;;;2.67;1.98;;;;;;;16.97;69.03;100025.33;1646148;86;21854;-76
2021/08/08 03:12:49;;;;;;;2.05;1.77;;;;;;;16.92;69.21;100035.20;1658814;86;21010;-74
2021/08/08 03:15:16;;;;;;;4.37;2.00;;;;;;;16.92;69.37;100035.70;1681807;85;20959;-73
2021/08/08 03:17:43;;;;;;;3.83;1.75;;;;;;;16.93;69.46;100043.53;1675402;85;21027;-73
2021/08/08 03:20:10;;;;;;;2.75;1.87;;;;;;;16.95;69.58;100044.69;1673579;85;21018;-75
2021/08/08 03:22:38;;;;;;;2.22;1.65;;;;;;;17.01;69.46;100048.84;1673337;85;21854;-74
2021/08/08 03:25:07;;;;;;;2.20;1.90;;;;;;;17.03;69.43;100049.50;1682168;85;20961;-74
2021/08/08 03:27:33;;;;;;;4.03;2.02;;;;;;;17.06;69.43;100045.66;1680445;84;20975;-74
2021/08/08 03:30:00;;;;;;;3.35;1.87;;;;;;;17.07;69.38;100042.80;1673885;85;21451;-74
2021/08/08 03:32:27;;;;;;;2.75;1.82;;;;;;;17.10;69.34;100046.99;1681749;85;21119;-73
2021/08/08 03:34:53;;;;;;;3.22;1.85;;;;;;;17.13;69.31;100041.30;1682311;85;22204;-75
2021/08/08 03:37:20;;;;;;;2.52;1.85;;;;;;;17.14;69.28;100046.46;1660032;84;21080;-75
2021/08/08 03:39:47;;;;;;;3.10;1.90;;;;;;;17.15;69.19;100042.78;1704056;84;21143;-75
2021/08/08 03:42:14;;;;;;;3.80;2.02;;;;;;;17.15;69.13;100044.63;1707944;83;20981;-73
2021/08/08 03:44:41;;;;;;;2.92;1.77;;;;;;;17.18;69.15;100044.30;1737300;82;20989;-73
2021/08/08 03:47:07;;;;;;;3.35;1.70;;;;;;;17.19;69.19;100044.63;1694031;83;21827;-77
2021/08/08 03:49:35;;;;;;;3.25;2.17;;;;;;;17.20;69.22;100050.80;1703417;84;20964;-75
2021/08/08 03:52:04;;;;;;;2.80;2.10;;;;;;;17.22;69.20;100050.11;1703814;84;20960;-77
2021/08/08 03:54:30;;;;;;;5.05;2.10;;;;;;;17.23;69.20;100056.61;1737388;82;21037;-75
2021/08/08 03:56:57;;;;;;;2.10;1.90;;;;;;;17.24;69.21;100056.11;1737513;82;21076;-74
2021/08/08 03:59:24;;;;;;;3.40;2.00;;;;;;;17.23;69.23;100053.11;1715874;82;22212;-74
2021/08/08 04:01:50;;;;;;;3.60;2.12;;;;;;;17.26;69.19;100055.42;1733824;82;20993;-74
2021/08/08 04:04:17;;;;;;;2.20;2.00;;;;;;;17.28;69.20;100053.44;1693147;84;21039;-75
2021/08/08 04:06:44;;;;;;;5.72;2.05;;;;;;;17.31;69.27;100056.58;1703987;84;21404;-76
2021/08/08 04:09:10;;;;;;;2.95;1.70;;;;;;;17.34;69.23;100054.89;1721713;83;21083;-74
2021/08/08 04:11:37;;;;;;;3.45;2.20;;;;;;;17.37;69.21;100053.70;1722027;83;21503;-75
2021/08/08 04:14:04;;;;;;;4.60;2.00;;;;;;;17.41;69.16;100051.03;1703876;84;21428;-75
2021/08/08 04:16:31;;;;;;;3.08;2.08;;;;;;;17.45;69.13;100051.00;1704033;84;21020;-76
2021/08/08 04:18:57;;;;;;;3.70;2.10;;;;;;;17.50;69.05;100047.83;1720782;83;20993;-76
2021/08/08 04:21:24;;;;;;;3.83;2.00;;;;;;;17.55;69.02;100052.95;1677649;83;20977;-75
2021/08/08 04:23:51;;;;;;;6.75;2.50;;;;;;;17.59;68.92;100052.12;1704058;84;21843;-75
2021/08/08 04:26:18;;;;;;;4.87;2.12;;;;;;;17.65;68.71;100057.58;1691709;84;21000;-75
2021/08/08 04:28:45;;;;;;;2.72;2.02;;;;;;;17.70;68.59;100053.92;1703776;84;21016;-74
2021/08/08 04:31:12;;;;;;;4.75;2.05;;;;;;;17.78;68.59;100060.23;1702675;84;21032;-75
2021/08/08 04:33:39;;;;;;;4.08;2.20;;;;;;;17.83;68.46;100063.20;1689959;84;21024;-76
2021/08/08 04:36:09;;;;;;;2.95;2.12;;;;;;;17.86;68.35;100061.53;1702509;84;21550;-75
2021/08/08 04:38:35;;;;;;;3.60;2.10;;;;;;;17.91;68.31;100063.98;1698466;83;21552;-75
2021/08/08 04:41:02;;;;;;;2.83;2.17;;;;;;;17.96;68.20;100065.63;1694148;84;20981;-75
2021/08/08 04:43:30;;;;;;;2.72;1.98;;;;;;;18.03;68.17;100061.72;1696132;84;21108;-76
2021/08/08 04:45:58;;;;;;;2.98;2.00;;;;;;;18.09;68.17;100058.86;1692596;83;21013;-77
2021/08/08 04:48:25;;;;;;;3.45;2.00;;;;;;;18.13;67.90;100056.97;1688014;83;21777;-76
2021/08/08 04:50:53;;;;;;;3.75;2.10;;;;;;;18.17;67.90;100058.30;1694609;84;21591;-75
2021/08/08 04:53:20;;;;;;;2.20;1.90;;;;;;;18.23;67.68;100057.56;1683687;84;21543;-75
2021/08/08 04:55:47;;;;;;;2.58;1.90;;;;;;;18.30;67.42;100068.38;1694510;84;21494;-75
2021/08/08 04:58:14;;;;;;;2.40;2.00;;;;;;;18.35;67.33;100079.89;1688980;84;20968;-75
2021/08/08 05:00:40;;;;;;;2.80;2.00;;;;;;;18.34;66.94;100081.73;1695279;84;22644;-73
2021/08/08 05:03:08;;;;;;;2.42;2.00;;;;;;;18.34;66.89;100084.92;1691944;84;21112;-75
2021/08/08 05:05:34;;;;;;;2.58;2.00;;;;;;;18.38;66.87;100084.87;1710816;83;21471;-73
2021/08/08 05:08:01;;;;;;;3.85;2.10;;;;;;;18.43;66.75;100077.13;1688466;85;21041;-77
2021/08/08 05:10:28;;;;;;;2.67;2.20;;;;;;;18.50;66.95;100078.08;1748115;80;20993;-75
2021/08/08 05:12:56;;;;;;;4.92;2.30;;;;;;;18.56;66.85;100083.55;1754199;80;22215;-75
2021/08/08 05:15:24;;;;;;;2.30;2.10;;;;;;;18.60;66.51;100086.68;1743961;80;20951;-75
2021/08/08 05:17:50;;;;;;;2.95;2.30;;;;;;;18.59;66.23;100083.18;1743613;82;21008;-75
2021/08/08 05:20:17;;;;;;;2.80;2.37;;;;;;;18.58;66.12;100090.88;1750136;81;21052;-76
2021/08/08 05:22:44;;;;;;;2.30;2.10;;;;;;;18.59;66.28;100079.67;1750234;82;21575;-76
2021/08/08 05:25:11;;;;;;;2.60;2.17;;;;;;;18.64;66.31;100075.14;1742833;82;22467;-75
2021/08/08 05:27:38;;;;;;;2.55;2.17;;;;;;;18.69;66.30;100082.95;1743604;82;20981;-74
2021/08/08 05:30:08;;;;;;;2.65;2.12;;;;;;;18.75;66.26;100084.91;1743687;82;21456;-75
2021/08/08 05:32:36;;;;;;;3.47;2.30;;;;;;;18.79;66.19;100086.71;1751599;82;21012;-74
2021/08/08 05:35:04;;;;;;;3.30;2.10;;;;;;;18.86;66.17;100095.69;1751990;81;21000;-74
2021/08/08 05:37:31;;;;;;;2.70;2.00;;;;;;;18.91;66.05;100096.45;1748223;82;22942;-75
2021/08/08 05:40:04;;;;;;;2.22;1.95;;;;;;;18.96;65.92;100089.55;1746310;82;21044;-73
2021/08/08 05:42:26;;;;;;;4.33;2.00;;;;;;;19.01;65.74;100099.70;1751869;81;20948;-74
2021/08/08 05:44:54;;;;;;;2.98;2.10;;;;;;;19.04;65.52;100102.86;1755571;81;21057;-74
2021/08/08 05:47:21;;;;;;;3.98;2.12;;;;;;;19.07;65.26;100099.81;1748120;81;20998;-74
2021/08/08 05:49:47;;;;;;;3.10;2.10;;;;;;;19.09;64.91;100100.45;1740469;81;22192;-73
2021/08/08 05:52:14;;;;;;;3.72;2.02;;;;;;;19.15;65.09;100101.58;1744533;81;21454;-74
2021/08/08 05:54:40;;;;;;;3.00;2.10;;;;;;;19.27;65.24;100100.60;1709821;83;21503;-75
2021/08/08 05:57:09;;;;;;;2.72;2.08;;;;;;;19.36;64.60;100100.33;1688990;84;21238;-73
2021/08/08 05:59:36;;;;;;;3.58;2.00;;;;;;;19.40;64.36;100106.16;1694662;83;20976;-73
2021/08/08 06:02:04;;;;;;;2.83;2.02;;;;;;;19.42;64.11;100117.00;1704558;83;21833;-76
2021/08/08 06:04:30;;;;;;;3.55;2.10;;;;;;;19.44;64.04;100126.19;1708849;82;21013;-72
2021/08/08 06:06:57;;;;;;;2.50;2.10;;;;;;;19.44;63.65;100120.32;1684168;85;21575;-72
2021/08/08 06:09:23;;;;;;;4.42;2.00;;;;;;;19.47;63.86;100129.00;1683091;84;21341;-72
2021/08/08 06:11:50;;;;;;;2.77;2.20;;;;;;;19.52;63.90;100126.61;1687542;85;21051;-72
2021/08/08 06:14:17;;;;;;;2.42;2.00;;;;;;;19.57;63.79;100122.88;1687719;85;21841;-72
2021/08/08 06:16:44;;;;;;;3.55;2.10;;;;;;;19.59;63.38;100127.05;1690855;84;20992;-75
2021/08/08 06:19:12;;;;;;;2.47;2.25;;;;;;;19.61;63.64;100118.83;1701600;84;20961;-71
2021/08/08 06:21:40;;;;;;;2.75;2.02;;;;;;;19.70;63.66;100120.39;1699603;84;21024;-71
2021/08/08 06:24:07;;;;;;;2.92;2.30;;;;;;;19.77;63.33;100127.14;1701672;84;21059;-75
2021/08/08 06:26:36;;;;;;;3.12;2.10;;;;;;;19.79;63.08;100124.63;1700465;84;21788;-72
2021/08/08 06:29:05;;;;;;;2.05;1.85;;;;;;;19.83;63.03;100119.70;1674451;84;20965;-73
2021/08/08 06:31:36;;;;;;;3.42;1.80;;;;;;;19.88;63.01;100118.14;1700011;84;20972;-74
2021/08/08 06:34:03;;;;;;;2.62;2.15;;;;;;;19.92;62.66;100110.54;1715828;83;20957;-78
2021/08/08 06:36:30;;;;;;;2.52;1.72;;;;;;;19.99;62.75;100119.50;1720103;82;21411;-77
2021/08/08 06:39:03;;;;;;;2.10;1.90;;;;;;;20.05;62.67;100113.88;1718820;83;20993;-77
2021/08/08 06:41:27;;;;;;;4.20;1.80;;;;;;;20.12;62.55;100125.50;1720498;82;21017;-77
2021/08/08 06:43:53;;;;;;;4.40;1.95;;;;;;;20.23;62.32;100122.32;1721765;82;21048;-77
2021/08/08 06:46:20;;;;;;;6.10;1.72;;;;;;;20.30;61.95;100127.25;1712071;82;21378;-75
2021/08/08 06:48:47;;;;;;;2.20;1.70;;;;;;;20.41;61.54;100127.25;1673540;83;21039;-74
2021/08/08 06:51:14;;;;;;;2.80;1.75;;;;;;;20.47;60.70;100130.55;1729012;82;21713;-73
2021/08/08 06:53:40;;;;;;;2.50;1.85;;;;;;;20.51;60.54;100121.91;1692286;84;21171;-72
2021/08/08 06:56:07;;;;;;;1.82;1.70;;;;;;;20.56;60.24;100120.02;1726977;82;21510;-74
2021/08/08 06:58:35;;;;;;;4.15;1.60;;;;;;;20.63;60.35;100120.88;1731931;82;21102;-74
2021/08/08 07:01:01;;;;;;;3.27;1.52;;;;;;;20.72;60.15;100113.01;1690353;84;21060;-74
2021/08/08 07:03:29;;;;;;;3.22;1.67;;;;;;;20.78;59.43;100131.03;1706465;82;22245;-77
2021/08/08 07:05:56;;;;;;;1.70;1.60;;;;;;;20.84;59.48;100125.37;1700284;84;21017;-79
2021/08/08 07:08:23;;;;;;;3.67;1.60;;;;;;;20.94;59.16;100132.61;1700254;84;21111;-75
2021/08/08 07:10:50;;;;;;;2.15;1.55;;;;;;;20.98;58.55;100132.53;1698744;84;21051;-78
2021/08/08 07:13:17;;;;;;;2.22;1.40;;;;;;;21.07;58.74;100133.22;1697884;84;21063;-79
2021/08/08 07:15:44;;;;;;;3.35;1.80;;;;;;;21.19;58.50;100129.47;1700168;83;21822;-79
2021/08/08 07:18:12;;;;;;;2.00;1.50;;;;;;;21.26;58.00;100133.89;1694516;84;21044;-76
2021/08/08 07:20:38;;;;;;;2.00;1.50;;;;;;;21.26;57.57;100143.78;1699284;84;21107;-76
2021/08/08 07:23:05;;;;;;;2.00;1.60;;;;;;;21.31;57.75;100144.03;1675765;84;21080;-74
2021/08/08 07:25:31;;;;;;;3.40;1.55;;;;;;;21.42;57.97;100139.45;1700409;84;21028;-73
2021/08/08 07:27:58;;;;;;;2.60;1.65;;;;;;;21.55;57.82;100140.05;1698764;84;21875;-77
2021/08/08 07:30:25;;;;;;;2.45;1.50;;;;;;;21.62;57.36;100140.92;1699682;84;21040;-76
2021/08/08 07:32:52;;;;;;;1.82;1.45;;;;;;;21.64;56.64;100139.69;1700376;84;21055;-75
2021/08/08 07:35:19;;;;;;;2.95;1.50;;;;;;;21.69;56.82;100145.28;1714202;83;21088;-76
2021/08/08 07:37:46;;;;;;;3.47;1.50;;;;;;;21.78;55.80;100140.56;1712031;83;21051;-75
2021/08/08 07:40:14;;;;;;;1.57;1.37;;;;;;;21.80;55.67;100140.36;1664340;84;22180;-71
2021/08/08 07:42:49;;;;;;;1.52;1.42;;;;;;;21.84;55.52;100137.61;1680657;84;21518;-73
2021/08/08 07:45:16;;;;;;;1.95;1.52;;;;;;;21.85;55.58;100136.05;1711372;82;21000;-73
2021/08/08 07:47:43;;;;;;;2.60;1.47;;;;;;;21.92;55.56;100133.41;1683891;84;21590;-77
2021/08/08 07:50:11;;;;;;;1.55;1.40;;;;;;;21.99;55.82;100132.37;1711202;82;21443;-77
2021/08/08 07:52:37;;;;;;;2.50;1.50;;;;;;;;;;1683198;84;22195;-78
2021/08/08 07:55:08;;;;;;;2.77;1.60;;;;;;;22.18;55.17;100128.63;1721923;82;21514;-78
2021/08/08 07:57:35;;;;;;;4.17;1.40;;;;;;;22.22;55.23;100136.11;1725186;82;20985;-77
2021/08/08 08:00:04;;;;;;;2.02;1.30;;;;;;;22.25;54.14;100112.82;1703952;82;21024;-75
2021/08/08 08:02:33;;;;;;;2.35;1.50;;;;;;;22.26;54.33;100114.48;1662223;85;22117;-77
2021/08/08 08:05:00;;;;;;;3.50;1.50;;;;;;;22.30;54.49;100115.44;1712236;82;22173;-77
2021/08/08 08:07:27;;;;;;;2.77;1.60;;;;;;;22.35;54.26;100100.84;1672395;85;21024;-78
2021/08/08 08:09:55;;;;;;;2.52;1.60;;;;;;;22.49;54.37;100097.14;1714255;83;22212;-78
2021/08/08 08:12:23;;;;;;;1.55;1.40;;;;;;;22.61;53.77;100092.79;1690882;83;21396;-75
2021/08/08 08:14:50;;;;;;;4.05;1.45;;;;;;;22.67;53.75;100085.21;1689011;84;22070;-77
2021/08/08 08:17:16;;;;;;;2.12;1.60;;;;;;;22.82;54.12;100087.70;1692392;83;21860;-77
2021/08/08 08:19:45;;;;;;;1.40;1.30;;;;;;;22.96;53.52;100083.98;1700289;84;21001;-78
2021/08/08 08:22:16;;;;;;;1.47;1.35;;;;;;;23.06;53.09;100088.93;1651956;85;20947;-76
2021/08/08 08:24:44;;;;;;;1.40;1.30;;;;;;;23.05;52.20;100088.63;1692321;84;21063;-74
2021/08/08 08:27:11;;;;;;;1.95;1.40;;;;;;;23.01;51.86;100093.62;1704360;83;21077;-75
2021/08/08 08:29:38;;;;;;;2.55;1.40;;;;;;;23.02;52.23;100091.23;1688010;84;21851;-75
2021/08/08 08:32:06;;;;;;;1.65;1.52;;;;;;;23.07;52.49;100088.75;1699202;82;21529;-79
2021/08/08 08:34:34;;;;;;;1.30;1.20;;;;;;;23.17;52.29;100087.48;1683990;84;21059;-76
2021/08/08 08:37:00;;;;;;;2.02;1.40;;;;;;;23.24;51.92;100090.45;1694393;84;21063;-77
2021/08/08 08:39:27;;;;;;;1.87;1.20;;;;;;;23.27;51.64;100084.66;1671578;84;21032;-78
2021/08/08 08:41:57;;;;;;;1.45;1.25;;;;;;;23.28;51.72;100074.19;1694935;84;22254;-74
2021/08/08 08:44:24;;;;;;;1.40;1.30;;;;;;;23.32;51.10;100071.36;1675133;84;21408;-75
2021/08/08 08:46:50;;;;;;;3.67;1.40;;;;;;;23.33;51.43;100068.14;1675798;85;21027;-75
2021/08/08 08:49:22;;;;;;;1.25;1.12;;;;;;;23.39;51.39;100065.44;1672833;84;21361;-75
2021/08/08 08:51:56;;;;;;;3.90;1.37;;;;;;;23.49;51.98;100066.34;1684901;84;21187;-76
2021/08/08 08:54:23;;;;;;;1.20;1.10;;;;;;;23.64;51.87;100060.69;1672028;85;21775;-73
2021/08/08 08:56:50;;;;;;;2.02;1.20;;;;;;;23.78;51.15;100060.95;1675089;84;21510;-78
2021/08/08 08:59:18;;;;;;;4.95;1.45;;;;;;;23.91;51.12;100055.47;1690473;84;21734;-78
2021/08/08 09:01:46;;;;;;;1.47;1.30;;;;;;;24.01;50.98;100058.22;1684058;84;21058;-73
2021/08/08 09:04:13;;;;;;;2.67;1.20;;;;;;;24.08;50.21;100059.84;1657862;85;21047;-76
2021/08/08 09:06:41;;;;;;;1.27;1.10;;;;;;;24.16;51.08;100060.10;1672602;85;21883;-77
2021/08/08 09:09:08;;;;;;;1.40;1.25;;;;;;;24.30;49.71;100057.59;1686745;84;20976;-77
2021/08/08 09:11:40;;;;;;;1.72;1.30;;;;;;;24.25;49.45;100057.45;1671095;85;21497;-72
2021/08/08 09:14:11;;;;;;;1.60;1.17;;;;;;;24.25;50.14;100051.52;1629644;85;21020;-74
2021/08/08 09:16:44;;;;;;;1.05;0.90;;;;;;;24.34;50.50;100057.52;1694834;83;21020;-78
2021/08/08 09:19:20;;;;;;;1.80;1.30;;;;;;;24.48;49.78;100063.09;1698853;83;20953;-74
2021/08/08 09:21:47;;;;;;;1.20;1.10;;;;;;;24.57;48.48;100064.18;1679761;85;21422;-74
2021/08/08 09:24:30;;;;;;;2.25;1.10;;;;;;;24.48;48.66;100061.75;1658750;86;21555;-75
2021/08/08 09:27:11;;;;;;;2.25;1.00;;;;;;;24.41;49.17;100061.49;1661626;86;20990;-75
2021/08/08 09:29:42;;;;;;;2.58;0.90;;;;;;;24.49;49.27;100078.25;1658922;86;21064;-74
2021/08/08 09:32:10;;;;;;;1.32;0.90;;;;;;;24.63;48.80;100077.63;1661714;86;21520;-74
2021/08/08 09:34:39;;;;;;;2.35;0.98;;;;;;;24.74;47.90;100075.56;1658727;86;21009;-75
2021/08/08 09:37:17;;;;;;;1.02;1.00;;;;;;;24.80;47.71;100076.53;1661892;86;20970;-74
2021/08/08 09:39:44;;;;;;;1.82;0.90;;;;;;;24.76;47.72;100074.81;1666098;84;21045;-75
2021/08/08 09:42:17;;;;;;;3.12;0.90;;;;;;;24.81;48.94;100072.81;1680051;84;20973;-74
2021/08/08 09:45:06;;;;;;;3.52;1.10;;;;;;;25.02;48.83;100089.16;1704069;84;21429;-74
2021/08/08 09:47:45;;;;;;;1.57;0.95;;;;;;;25.21;47.59;100085.95;1703959;84;20978;-74
2021/08/08 09:50:17;;;;;;;1.25;0.88;;;;;;;25.24;47.77;100094.95;1704056;83;21005;-74
2021/08/08 09:53:00;;;;;;;1.17;1.00;;;;;;;25.32;47.19;100096.84;1697231;84;21068;-74
2021/08/08 09:55:38;;;;;;;3.17;0.90;;;;;;;25.32;47.10;100093.31;1687030;85;21485;-74
2021/08/08 09:58:20;;;;;;;2.67;1.27;;;;;;;25.37;47.45;100102.38;1693266;84;20960;-73
2021/08/08 10:00:45;;;;;;;1.40;1.10;;;;;;;25.55;47.89;100093.44;1675797;85;20968;-74
2021/08/08 10:03:14;;;;;;;1.22;0.90;;;;;;;25.71;47.07;100102.04;1675719;85;21491;-73
2021/08/08 10:05:44;;;;;;;0.70;0.70;;;;;;;25.75;47.07;100092.40;1693443;84;21012;-73
2021/08/08 10:08:17;;;;;;;1.40;0.90;;;;;;;25.92;47.43;100097.48;1693276;84;21020;-74
2021/08/08 10:10:47;;;;;;;2.47;0.80;;;;;;;26.16;47.11;100099.23;1693480;84;20953;-74
2021/08/08 10:13:53;;;;;;;4.42;0.90;;;;;;;26.33;45.95;100083.67;1677026;83;21456;-73
2021/08/08 10:16:19;;;;;;;0.88;0.80;;;;;;;26.35;45.57;100089.70;1712369;83;21051;-74
2021/08/08 10:18:56;;;;;;;2.47;0.85;;;;;;;26.40;45.18;100083.08;1713002;83;21011;-74
2021/08/08 10:21:23;;;;;;;1.30;0.88;;;;;;;26.47;46.06;100090.58;1722483;83;20969;-75
2021/08/08 10:23:51;;;;;;;1.02;0.78;;;;;;;26.63;44.93;100079.04;1704127;83;22204;-74
2021/08/08 10:26:19;;;;;;;2.37;0.72;;;;;;;26.69;45.28;100084.88;1722422;83;21026;-75
2021/08/08 10:28:51;;;;;;;1.85;0.80;;;;;;;26.81;45.45;100083.00;1722167;83;20957;-75
2021/08/08 10:31:17;;;;;;;0.73;0.73;;;;;;;26.92;45.52;100084.59;1722665;83;21663;-74
2021/08/08 10:33:49;;;;;;;1.65;0.82;;;;;;;27.05;44.64;100085.22;1697615;83;20961;-74
2021/08/08 10:36:32;;;;;;;1.32;0.75;;;;;;;27.20;45.08;100095.56;1721759;83;22492;-75
2021/08/08 10:39:14;;;;;;;1.75;0.70;;;;;;;27.42;44.43;100094.97;1722180;83;21008;-75
2021/08/08 10:41:42;;;;;;;3.75;0.80;;;;;;;27.64;44.94;100099.50;1719582;83;21458;-75
2021/08/08 10:44:13;;;;;;;0.60;0.60;;;;;;;27.78;43.51;100094.64;1719393;83;21012;-75
2021/08/08 10:46:50;;;;;;;0.68;0.60;;;;;;;27.92;43.58;100104.70;1719599;83;21008;-75
2021/08/08 10:49:30;;;;;;;1.80;0.70;;;;;;;28.06;42.44;100097.89;1719711;83;21894;-75
2021/08/08 10:52:03;;;;;;;0.80;0.70;;;;;;;28.09;42.44;100103.39;1719363;83;20942;-75
2021/08/08 10:54:48;;;;;;;0.78;0.60;;;;;;;28.11;42.72;100094.47;1693824;84;21495;-75
2021/08/08 10:57:16;;;;;;;;;;;;;;;28.13;42.70;100096.40;1696303;84;21004;-75
2021/08/08 10:59:46;;;;;;;0.60;0.60;;;;;;;28.28;41.88;100086.33;1721755;83;20128;-74
2021/08/08 11:02:15;;;;;;;1.22;0.62;;;;;;;28.21;41.76;100081.89;1721802;83;21852;-74
2021/08/08 11:04:42;;;;;;;1.32;0.75;;;;;;;28.24;42.12;100082.75;1707425;82;21433;-75
2021/08/08 11:07:09;;;;;;;1.00;0.90;;;;;;;28.45;43.12;100084.48;1685295;85;21084;-76
2021/08/08 11:09:38;;;;;;;4.08;0.80;;;;;;;28.66;42.03;100083.77;1676794;84;20981;-76
2021/08/08 11:12:08;;;;;;;1.00;0.80;;;;;;;28.73;41.11;100078.15;1719413;83;21050;-74
2021/08/08 11:14:34;;;;;;;2.20;0.90;;;;;;;28.70;41.18;100074.58;1719384;83;22641;-75
2021/08/08 11:17:07;;;;;;;2.05;0.78;;;;;;;28.74;41.17;100083.87;1719293;83;21026;-75
2021/08/08 11:19:40;;;;;;;2.00;1.00;;;;;;;28.67;41.16;100079.16;1696090;83;20977;-76
2021/08/08 11:22:09;;;;;;;;;;;;;;;28.67;41.16;100079.16;1668980;84;20968;-76
2021/08/08 11:24:37;;;;;;;3.60;0.70;;;;;;;28.75;41.76;100086.34;1693749;84;20155;-77
2021/08/08 11:27:07;;;;;;;1.85;1.30;;;;;;;28.91;40.75;100087.43;1693727;84;21887;-76
2021/08/08 11:29:34;;;;;;;2.77;0.93;;;;;;;28.98;41.02;100081.30;1667127;84;20957;-75
2021/08/08 11:32:04;;;;;;;4.55;0.93;;;;;;;29.18;41.03;100079.39;1719348;83;21476;-75